createdAt,value
2019-03-06T00:01:07.611Z,10.50
2019-03-06T00:03:35.320Z,10.50
2019-03-06T00:06:03.046Z,10.60
2019-03-06T00:08:30.755Z,10.60
2019-03-06T00:10:58.485Z,10.60
2019-03-06T00:13:26.228Z,10.50
2019-03-06T00:15:53.941Z,10.50
2019-03-06T00:18:21.765Z,10.50
2019-03-06T00:20:49.485Z,10.40
2019-03-06T00:23:17.219Z,10.40
2019-03-06T00:25:44.917Z,10.30
2019-03-06T00:28:12.842Z,10.30
2019-03-06T00:30:40.552Z,10.30
2019-03-06T00:33:08.289Z,10.30
2019-03-06T00:35:39.736Z,10.20
2019-03-06T00:38:07.496Z,10.20
2019-03-06T00:40:43.448Z,10.30
2019-03-06T00:43:11.187Z,10.30
2019-03-06T00:45:38.901Z,10.30
2019-03-06T00:48:06.639Z,10.30
2019-03-06T00:50:34.364Z,10.30
2019-03-06T00:53:02.400Z,10.30
2019-03-06T00:55:30.105Z,10.30
2019-03-06T00:57:57.833Z,10.30
2019-03-06T01:00:25.652Z,10.30
2019-03-06T01:02:53.380Z,10.30
2019-03-06T01:05:21.081Z,10.30
2019-03-06T01:07:48.807Z,10.30
2019-03-06T01:10:16.513Z,10.30
2019-03-06T01:12:44.249Z,10.30
2019-03-06T01:15:14.597Z,10.40
2019-03-06T01:17:42.389Z,10.30
2019-03-06T01:20:10.121Z,10.30
2019-03-06T01:22:37.845Z,10.30
2019-03-06T01:25:05.689Z,10.30
2019-03-06T01:27:33.401Z,10.30
2019-03-06T01:30:01.129Z,10.20
2019-03-06T01:32:29.244Z,10.30
2019-03-06T01:35:14.882Z,10.20
2019-03-06T01:38:01.374Z,10.20
2019-03-06T01:40:39.688Z,10.30
2019-03-06T01:43:16.782Z,10.30
2019-03-06T01:45:44.490Z,10.30
2019-03-06T01:48:12.509Z,10.30
2019-03-06T01:50:40.252Z,10.30
2019-03-06T01:53:07.945Z,10.30
2019-03-06T01:55:35.676Z,10.30
2019-03-06T01:58:03.377Z,10.30
2019-03-06T02:00:31.389Z,10.40
2019-03-06T02:02:59.105Z,10.40
2019-03-06T02:05:27.039Z,10.40
2019-03-06T02:07:54.790Z,10.50
2019-03-06T02:10:22.513Z,10.50
2019-03-06T02:12:50.213Z,10.60
2019-03-06T02:15:18.367Z,10.60
2019-03-06T02:17:46.073Z,10.60
2019-03-06T02:20:14.985Z,10.60
2019-03-06T02:22:42.765Z,10.60
2019-03-06T02:25:10.481Z,10.70
2019-03-06T02:27:38.201Z,10.70
2019-03-06T02:30:09.260Z,10.60
2019-03-06T02:32:36.983Z,10.70
2019-03-06T02:35:04.789Z,10.70
2019-03-06T02:37:32.950Z,10.70
2019-03-06T02:40:00.987Z,10.70
2019-03-06T02:42:28.806Z,10.80
2019-03-06T02:44:56.561Z,10.80
2019-03-06T02:47:24.290Z,10.70
2019-03-06T02:49:52.013Z,10.70
2019-03-06T02:52:19.751Z,10.70
2019-03-06T02:54:47.466Z,10.80
2019-03-06T02:57:15.185Z,10.80
2019-03-06T03:00:08.185Z,10.80
2019-03-06T03:03:01.235Z,10.80
2019-03-06T03:05:39.505Z,10.70
2019-03-06T03:08:07.231Z,10.80
2019-03-06T03:10:34.930Z,10.90
2019-03-06T03:13:02.968Z,10.90
2019-03-06T03:15:30.686Z,10.90
2019-03-06T03:17:58.380Z,10.80
2019-03-06T03:20:26.115Z,10.90
2019-03-06T03:22:53.810Z,10.80
2019-03-06T03:25:21.524Z,10.80
2019-03-06T03:27:49.300Z,10.80
2019-03-06T03:30:17.029Z,10.80
2019-03-06T03:32:52.861Z,10.80
2019-03-06T03:35:20.573Z,10.60
2019-03-06T03:37:48.298Z,10.60
2019-03-06T03:40:16.121Z,10.60
2019-03-06T03:42:43.892Z,10.70
2019-03-06T03:45:11.730Z,10.60
2019-03-06T03:47:39.485Z,10.70
2019-03-06T03:50:07.969Z,10.70
2019-03-06T03:52:35.690Z,10.60
2019-03-06T03:55:03.859Z,10.60
2019-03-06T03:57:31.586Z,10.60
2019-03-06T03:59:59.305Z,10.60
2019-03-06T04:02:27.042Z,10.60
2019-03-06T04:04:54.753Z,10.60
2019-03-06T04:07:22.672Z,10.70
2019-03-06T04:09:50.418Z,10.70
2019-03-06T04:12:18.120Z,10.70
2019-03-06T04:14:45.836Z,10.80
2019-03-06T04:17:13.560Z,10.80
2019-03-06T04:19:41.303Z,10.90
2019-03-06T04:22:09.330Z,11.00
2019-03-06T04:24:37.058Z,11.00
2019-03-06T04:27:04.762Z,11.10
2019-03-06T04:29:32.523Z,11.20
2019-03-06T04:32:00.262Z,11.20
2019-03-06T04:34:27.988Z,11.20
2019-03-06T04:36:55.797Z,11.20
2019-03-06T04:39:23.516Z,11.20
2019-03-06T04:41:51.244Z,11.20
2019-03-06T04:44:19.042Z,11.30
2019-03-06T04:46:46.758Z,11.40
2019-03-06T04:49:14.488Z,11.50
2019-03-06T04:51:42.205Z,11.50
2019-03-06T04:54:09.957Z,11.60
2019-03-06T04:56:37.657Z,11.60
2019-03-06T04:59:05.381Z,11.60
2019-03-06T05:01:33.076Z,11.60
2019-03-06T05:04:01.010Z,11.60
2019-03-06T05:06:28.729Z,11.60
2019-03-06T05:08:56.485Z,11.60
2019-03-06T05:11:24.190Z,11.70
2019-03-06T05:13:51.985Z,11.80
2019-03-06T05:16:21.637Z,11.80
2019-03-06T05:18:52.238Z,11.80
2019-03-06T05:21:19.941Z,11.80
2019-03-06T05:23:47.671Z,11.80
2019-03-06T05:26:15.393Z,11.80
2019-03-06T05:28:43.105Z,11.80
2019-03-06T05:31:10.825Z,11.80
2019-03-06T05:33:38.547Z,11.80
2019-03-06T05:36:52.084Z,11.90
2019-03-06T05:39:19.810Z,11.80
2019-03-06T05:41:47.523Z,11.90
2019-03-06T05:44:15.249Z,12.00
2019-03-06T05:46:43.017Z,11.90
2019-03-06T05:49:12.541Z,12.00
2019-03-06T05:51:40.261Z,12.10
2019-03-06T05:54:08.017Z,12.10
2019-03-06T05:56:35.729Z,12.10
2019-03-06T05:59:03.441Z,12.10
2019-03-06T06:01:31.473Z,12.00
2019-03-06T06:03:59.193Z,12.10
2019-03-06T06:06:26.925Z,12.00
2019-03-06T06:08:54.662Z,12.00
2019-03-06T06:11:22.447Z,12.10
2019-03-06T06:13:50.146Z,12.10
2019-03-06T06:16:17.877Z,12.10
2019-03-06T06:18:45.595Z,12.10
2019-03-06T06:21:31.290Z,12.10
2019-03-06T06:24:02.067Z,12.10
2019-03-06T06:26:29.809Z,12.10
2019-03-06T06:28:57.545Z,12.10
2019-03-06T06:31:25.261Z,12.10
2019-03-06T06:33:52.985Z,12.10
2019-03-06T06:36:20.717Z,12.10
2019-03-06T06:38:48.644Z,12.20
2019-03-06T06:41:16.382Z,12.20
2019-03-06T06:43:44.122Z,12.30
2019-03-06T06:46:11.895Z,12.30
2019-03-06T06:48:39.613Z,12.30
2019-03-06T06:51:28.089Z,12.40
2019-03-06T06:54:07.556Z,12.40
2019-03-06T06:57:04.077Z,12.40
2019-03-06T06:59:46.722Z,12.40
2019-03-06T07:03:08.086Z,12.50
2019-03-06T07:05:44.540Z,12.50
2019-03-06T07:08:34.483Z,12.50
2019-03-06T07:11:17.369Z,12.60
2019-03-06T07:14:04.522Z,12.60
2019-03-06T07:16:47.731Z,12.70
2019-03-06T07:19:33.385Z,12.80
2019-03-06T07:22:09.565Z,12.80
2019-03-06T07:24:56.729Z,12.80
2019-03-06T07:27:55.715Z,12.80
2019-03-06T07:30:48.710Z,12.90
2019-03-06T07:33:40.729Z,12.80
2019-03-06T07:36:40.024Z,12.90
2019-03-06T07:39:35.230Z,13.00
2019-03-06T07:42:16.284Z,13.00
2019-03-06T07:45:59.618Z,13.10
2019-03-06T07:48:37.267Z,13.10
2019-03-06T07:51:24.417Z,13.20
2019-03-06T07:54:11.397Z,13.20
2019-03-06T07:56:53.918Z,13.20
2019-03-06T07:59:21.625Z,13.30
2019-03-06T08:02:04.943Z,13.30
2019-03-06T08:04:32.683Z,13.30
2019-03-06T08:07:10.261Z,13.40
2019-03-06T08:09:37.969Z,13.40
2019-03-06T08:12:23.831Z,13.50
2019-03-06T08:15:19.991Z,13.60
2019-03-06T08:18:02.212Z,13.60
2019-03-06T08:20:52.142Z,13.70
2019-03-06T08:23:39.381Z,13.80
2019-03-06T08:26:07.421Z,13.80
2019-03-06T08:28:35.185Z,14.00
2019-03-06T08:31:10.481Z,14.00
2019-03-06T08:33:38.284Z,14.00
2019-03-06T08:36:06.014Z,14.10
2019-03-06T08:38:33.761Z,14.20
2019-03-06T08:41:04.575Z,14.30
2019-03-06T08:43:31.016Z,14.50
2019-03-06T08:46:06.210Z,14.60
2019-03-06T08:48:53.358Z,14.80
2019-03-06T08:51:27.902Z,14.90
2019-03-06T08:54:08.735Z,15.10
2019-03-06T08:57:14.095Z,15.30
2019-03-06T08:59:58.149Z,15.40
2019-03-06T09:02:39.693Z,15.60
2019-03-06T09:05:31.050Z,15.70
2019-03-06T09:08:27.288Z,15.90
2019-03-06T09:11:32.919Z,16.00
2019-03-06T09:14:10.938Z,16.10
2019-03-06T09:17:04.129Z,16.10
2019-03-06T09:19:58.953Z,16.20
2019-03-06T09:22:48.913Z,16.30
2019-03-06T09:25:32.428Z,16.40
2019-03-06T09:28:05.606Z,16.50
2019-03-06T09:30:56.404Z,16.70
2019-03-06T09:33:43.110Z,16.80
2019-03-06T09:36:39.073Z,16.80
2019-03-06T09:39:41.209Z,17.00
2019-03-06T09:42:37.282Z,17.10
2019-03-06T09:45:13.020Z,17.00
2019-03-06T09:47:51.913Z,17.20
2019-03-06T09:50:37.707Z,17.30
2019-03-06T09:53:27.893Z,17.40
2019-03-06T09:56:09.601Z,17.40
2019-03-06T09:59:14.880Z,17.60
2019-03-06T10:02:11.373Z,17.70
2019-03-06T10:04:57.659Z,17.70
2019-03-06T10:07:48.848Z,17.50
2019-03-06T10:10:27.481Z,17.50
2019-03-06T10:13:04.021Z,17.60
2019-03-06T10:15:57.412Z,17.70
2019-03-06T10:18:56.594Z,17.80
2019-03-06T10:21:25.738Z,18.00
2019-03-06T10:23:53.640Z,17.90
2019-03-06T10:26:21.566Z,17.80
2019-03-06T10:28:49.268Z,17.80
2019-03-06T10:31:17.313Z,17.90
2019-03-06T10:33:45.023Z,18.00
2019-03-06T10:36:13.048Z,18.10
2019-03-06T10:38:40.789Z,18.20
2019-03-06T10:41:08.509Z,18.30
2019-03-06T10:43:36.224Z,18.30
2019-03-06T10:46:03.945Z,18.40
2019-03-06T10:48:31.661Z,18.40
2019-03-06T10:50:59.378Z,18.50
2019-03-06T10:53:27.131Z,18.50
2019-03-06T10:55:55.199Z,18.50
2019-03-06T10:58:22.937Z,18.60
2019-03-06T11:00:52.547Z,18.80
2019-03-06T11:03:20.982Z,18.80
2019-03-06T11:05:48.701Z,18.80
2019-03-06T11:08:16.441Z,19.00
2019-03-06T11:10:44.179Z,19.10
2019-03-06T11:13:11.904Z,19.20
2019-03-06T11:15:39.811Z,19.40
2019-03-06T11:18:07.896Z,19.50
2019-03-06T11:20:35.701Z,19.50
2019-03-06T11:23:03.541Z,19.60
2019-03-06T11:25:31.723Z,19.70
2019-03-06T11:27:59.461Z,19.80
2019-03-06T11:30:51.005Z,19.80
2019-03-06T11:33:19.325Z,19.90
2019-03-06T11:35:47.055Z,19.80
2019-03-06T11:38:15.672Z,19.90
2019-03-06T11:40:45.585Z,20.00
2019-03-06T11:43:13.328Z,20.10
2019-03-06T11:45:41.118Z,20.30
2019-03-06T11:48:09.149Z,20.40
2019-03-06T11:50:40.805Z,20.60
2019-03-06T11:53:07.664Z,20.70
2019-03-06T11:55:35.640Z,20.80
2019-03-06T11:58:03.401Z,20.60
2019-03-06T12:00:39.218Z,20.50
2019-03-06T12:03:07.111Z,20.30
2019-03-06T12:05:35.403Z,20.10
2019-03-06T12:08:08.877Z,20.10
2019-03-06T12:10:36.617Z,20.10
2019-03-06T12:13:07.337Z,20.30
2019-03-06T12:15:35.097Z,20.20
2019-03-06T12:18:02.985Z,20.30
2019-03-06T12:20:30.764Z,20.30
2019-03-06T12:22:58.829Z,20.40
2019-03-06T12:25:26.566Z,20.30
2019-03-06T12:27:54.293Z,20.40
2019-03-06T12:30:22.041Z,20.40
2019-03-06T12:32:49.788Z,20.30
2019-03-06T12:35:17.539Z,20.20
2019-03-06T12:37:47.180Z,20.20
2019-03-06T12:40:14.977Z,20.10
2019-03-06T12:42:42.695Z,20.10
2019-03-06T12:45:12.541Z,20.30
2019-03-06T12:47:40.770Z,20.30
2019-03-06T12:50:11.565Z,20.30
2019-03-06T12:52:39.274Z,20.30
2019-03-06T12:55:07.961Z,20.20
2019-03-06T12:57:35.685Z,19.90
2019-03-06T13:00:04.337Z,19.80
2019-03-06T13:02:32.049Z,19.60
2019-03-06T13:04:59.792Z,19.30
2019-03-06T13:07:27.713Z,19.10
2019-03-06T13:09:55.443Z,19.00
2019-03-06T13:12:23.165Z,18.80
2019-03-06T13:14:51.118Z,18.70
2019-03-06T13:17:18.881Z,18.60
2019-03-06T13:19:46.606Z,18.50
2019-03-06T13:22:14.321Z,18.40
2019-03-06T13:24:42.302Z,18.40
2019-03-06T13:27:10.006Z,18.40
2019-03-06T13:29:37.737Z,18.50
2019-03-06T13:32:11.607Z,18.50
2019-03-06T13:34:38.745Z,18.60
2019-03-06T13:37:06.489Z,18.80
2019-03-06T13:39:34.401Z,18.80
2019-03-06T13:42:02.118Z,18.70
2019-03-06T13:44:29.825Z,18.80
2019-03-06T13:46:57.566Z,18.70
2019-03-06T13:49:25.299Z,18.70
2019-03-06T13:51:53.094Z,18.60
2019-03-06T13:54:20.801Z,18.50
2019-03-06T13:56:48.622Z,18.40
2019-03-06T13:59:16.361Z,18.40
2019-03-06T14:01:44.085Z,18.50
2019-03-06T14:04:11.828Z,18.50
2019-03-06T14:06:39.559Z,18.70
2019-03-06T14:09:08.157Z,18.70
2019-03-06T14:11:35.875Z,18.80
2019-03-06T14:14:03.679Z,19.00
2019-03-06T14:16:31.421Z,19.10
2019-03-06T14:18:59.135Z,19.20
2019-03-06T14:21:26.862Z,19.30
2019-03-06T14:23:54.562Z,19.30
2019-03-06T14:26:22.367Z,19.30
2019-03-06T14:28:50.073Z,19.30
2019-03-06T14:31:17.838Z,19.50
2019-03-06T14:33:45.553Z,19.60
2019-03-06T14:36:13.293Z,19.60
2019-03-06T14:38:40.998Z,19.60
2019-03-06T14:41:08.722Z,19.60
2019-03-06T14:43:36.474Z,19.60
2019-03-06T14:46:04.169Z,19.70
2019-03-06T14:48:31.889Z,19.80
2019-03-06T14:50:59.625Z,19.90
2019-03-06T14:53:27.441Z,19.90
2019-03-06T14:55:55.223Z,19.80
2019-03-06T14:58:22.964Z,19.70
2019-03-06T15:00:50.689Z,19.70
2019-03-06T15:03:18.614Z,19.80
2019-03-06T15:05:47.314Z,19.80
2019-03-06T15:08:15.257Z,19.90
2019-03-06T15:10:43.400Z,19.60
2019-03-06T15:13:11.205Z,19.30
2019-03-06T15:15:38.921Z,19.20
2019-03-06T15:18:10.636Z,19.10
2019-03-06T15:20:37.374Z,19.00
2019-03-06T15:23:05.303Z,18.90
2019-03-06T15:25:33.043Z,19.00
2019-03-06T15:28:00.774Z,19.00
2019-03-06T15:30:28.478Z,18.90
2019-03-06T15:32:56.214Z,18.90
2019-03-06T15:35:23.931Z,18.90
2019-03-06T15:37:51.669Z,18.90
2019-03-06T15:40:22.349Z,19.00
2019-03-06T15:42:50.272Z,19.00
2019-03-06T15:45:21.610Z,19.00
2019-03-06T15:47:49.365Z,19.00
2019-03-06T15:50:17.284Z,18.90
2019-03-06T15:52:44.987Z,18.90
2019-03-06T15:55:12.736Z,18.80
2019-03-06T15:57:40.457Z,18.70
2019-03-06T16:00:15.205Z,18.80
2019-03-06T16:02:43.105Z,18.80
2019-03-06T16:05:13.237Z,18.80
2019-03-06T16:07:40.949Z,18.80
2019-03-06T16:10:08.725Z,18.80
2019-03-06T16:12:36.433Z,18.70
2019-03-06T16:15:04.416Z,18.60
2019-03-06T16:17:32.153Z,18.60
2019-03-06T16:19:59.889Z,18.60
2019-03-06T16:22:27.609Z,18.50
2019-03-06T16:24:55.355Z,18.40
2019-03-06T16:27:23.151Z,18.40
2019-03-06T16:29:51.337Z,18.20
2019-03-06T16:32:19.053Z,18.10
2019-03-06T16:34:47.083Z,17.90
2019-03-06T16:37:14.794Z,17.70
2019-03-06T16:39:42.520Z,17.60
2019-03-06T16:42:10.233Z,17.50
2019-03-06T16:44:37.958Z,17.40
2019-03-06T16:47:07.017Z,17.40
2019-03-06T16:49:34.937Z,17.40
2019-03-06T16:52:02.939Z,17.30
2019-03-06T16:54:30.669Z,17.20
2019-03-06T16:56:58.397Z,17.10
2019-03-06T16:59:26.179Z,17.10
2019-03-06T17:01:53.910Z,17.10
2019-03-06T17:04:21.632Z,17.10
2019-03-06T17:06:49.577Z,17.10
2019-03-06T17:09:18.374Z,17.10
2019-03-06T17:11:46.118Z,17.00
2019-03-06T17:14:13.835Z,16.90
2019-03-06T17:16:41.606Z,16.80
2019-03-06T17:19:09.316Z,16.70
2019-03-06T17:21:37.350Z,16.70
2019-03-06T17:24:05.078Z,16.60
2019-03-06T17:26:32.872Z,16.50
2019-03-06T17:29:13.737Z,16.40
2019-03-06T17:31:41.599Z,16.40
2019-03-06T17:34:09.317Z,16.30
2019-03-06T17:36:37.052Z,16.30
2019-03-06T17:39:05.173Z,16.30
2019-03-06T17:41:32.902Z,16.20
2019-03-06T17:44:00.655Z,16.20
2019-03-06T17:46:28.708Z,16.10
2019-03-06T17:48:56.459Z,16.10
2019-03-06T17:51:24.389Z,16.00
2019-03-06T17:53:52.081Z,16.00
2019-03-06T17:56:19.854Z,15.90
2019-03-06T17:58:47.577Z,15.90
2019-03-06T18:01:17.973Z,15.80
2019-03-06T18:03:57.637Z,15.80
2019-03-06T18:06:25.375Z,15.70
2019-03-06T18:08:53.103Z,15.70
2019-03-06T18:11:20.921Z,15.70
2019-03-06T18:13:48.850Z,15.70
2019-03-06T18:16:16.537Z,15.70
2019-03-06T18:18:44.279Z,15.70
2019-03-06T18:21:12.198Z,15.70
2019-03-06T18:23:39.957Z,15.70
2019-03-06T18:26:07.886Z,15.70
2019-03-06T18:28:35.677Z,15.60
2019-03-06T18:31:03.412Z,15.70
2019-03-06T18:33:31.321Z,15.70
2019-03-06T18:35:59.277Z,15.70
2019-03-06T18:38:27.189Z,15.70
2019-03-06T18:40:54.906Z,15.80
2019-03-06T18:43:22.705Z,15.80
2019-03-06T18:45:50.509Z,15.70
2019-03-06T18:48:18.236Z,15.70
2019-03-06T18:50:46.201Z,15.70
2019-03-06T18:53:13.939Z,15.70
2019-03-06T18:55:41.952Z,15.80
2019-03-06T18:58:09.744Z,15.80
2019-03-06T19:00:37.716Z,15.70
2019-03-06T19:03:05.482Z,15.70
2019-03-06T19:05:33.376Z,15.70
2019-03-06T19:08:01.107Z,15.70
2019-03-06T19:10:28.833Z,15.70
2019-03-06T19:12:56.573Z,15.60
2019-03-06T19:15:24.345Z,15.50
2019-03-06T19:17:52.074Z,15.40
2019-03-06T19:20:19.789Z,15.40
2019-03-06T19:22:47.625Z,15.30
2019-03-06T19:25:15.617Z,15.30
2019-03-06T19:27:43.465Z,15.20
2019-03-06T19:30:15.594Z,15.20
2019-03-06T19:32:43.340Z,15.20
2019-03-06T19:35:11.079Z,15.20
2019-03-06T19:37:39.157Z,15.30
2019-03-06T19:40:07.361Z,15.40
2019-03-06T19:42:35.073Z,15.40
2019-03-06T19:45:03.465Z,15.40
2019-03-06T19:47:31.144Z,15.50
2019-03-06T19:49:59.145Z,15.50
2019-03-06T19:52:26.862Z,15.50
2019-03-06T19:54:54.614Z,15.50
2019-03-06T19:57:22.339Z,15.50
2019-03-06T19:59:50.066Z,15.50
2019-03-06T20:02:17.873Z,15.50
2019-03-06T20:04:45.837Z,15.50
2019-03-06T20:07:13.977Z,15.50
2019-03-06T20:09:41.670Z,15.50
2019-03-06T20:12:09.400Z,15.50
2019-03-06T20:14:37.222Z,15.50
2019-03-06T20:17:04.929Z,15.50
2019-03-06T20:19:33.008Z,15.50
2019-03-06T20:22:02.145Z,15.60
2019-03-06T20:24:29.953Z,15.60
2019-03-06T20:26:57.688Z,15.50
2019-03-06T20:29:25.509Z,15.40
2019-03-06T20:31:53.335Z,15.00
2019-03-06T20:34:21.065Z,14.80
2019-03-06T20:36:48.990Z,14.50
2019-03-06T20:39:16.765Z,14.40
2019-03-06T20:41:44.496Z,14.20
2019-03-06T20:44:12.635Z,14.10
2019-03-06T20:46:40.410Z,14.10
2019-03-06T20:49:08.131Z,14.00
2019-03-06T20:51:35.907Z,14.00
2019-03-06T20:54:03.910Z,14.00
2019-03-06T20:56:31.637Z,14.00
2019-03-06T20:58:59.371Z,14.00
2019-03-06T21:01:27.528Z,14.00
2019-03-06T21:03:55.233Z,14.00
2019-03-06T21:06:22.969Z,14.00
2019-03-06T21:08:50.702Z,14.00
2019-03-06T21:11:18.448Z,14.00
2019-03-06T21:13:46.282Z,13.90
2019-03-06T21:16:14.025Z,13.90
2019-03-06T21:18:41.765Z,13.90
2019-03-06T21:21:09.697Z,13.90
2019-03-06T21:23:37.435Z,13.80
2019-03-06T21:26:05.241Z,13.80
2019-03-06T21:28:33.036Z,13.70
2019-03-06T21:31:00.985Z,13.60
2019-03-06T21:33:28.969Z,13.70
2019-03-06T21:35:56.790Z,13.70
2019-03-06T21:38:24.505Z,13.80
2019-03-06T21:40:52.364Z,13.80
2019-03-06T21:43:20.293Z,13.80
2019-03-06T21:45:48.125Z,13.70
2019-03-06T21:48:15.856Z,13.60
2019-03-06T21:50:43.563Z,13.50
2019-03-06T21:53:11.514Z,13.40
2019-03-06T21:55:39.383Z,13.30
2019-03-06T21:58:07.109Z,13.30
2019-03-06T22:00:34.825Z,13.20
2019-03-06T22:03:02.583Z,13.20
2019-03-06T22:05:30.493Z,13.20
2019-03-06T22:07:58.207Z,13.00
2019-03-06T22:10:26.099Z,12.90
2019-03-06T22:12:53.817Z,12.90
2019-03-06T22:15:21.647Z,13.00
2019-03-06T22:17:49.473Z,13.10
2019-03-06T22:20:17.325Z,13.10
2019-03-06T22:22:45.041Z,13.20
2019-03-06T22:25:12.769Z,13.20
2019-03-06T22:27:40.489Z,13.20
2019-03-06T22:30:11.604Z,13.20
2019-03-06T22:32:39.305Z,13.10
2019-03-06T22:35:07.223Z,13.20
2019-03-06T22:37:34.919Z,13.20
2019-03-06T22:40:02.873Z,13.20
2019-03-06T22:42:30.920Z,13.10
2019-03-06T22:44:58.900Z,12.90
2019-03-06T22:47:26.612Z,12.80
2019-03-06T22:49:54.357Z,12.70
2019-03-06T22:52:22.191Z,12.60
2019-03-06T22:54:50.090Z,12.60
2019-03-06T22:57:17.911Z,12.50
2019-03-06T22:59:45.733Z,12.50
2019-03-06T23:02:13.777Z,12.60
2019-03-06T23:04:41.507Z,12.60
2019-03-06T23:07:09.226Z,12.60
2019-03-06T23:09:36.969Z,12.60
2019-03-06T23:12:04.674Z,12.60
2019-03-06T23:14:32.717Z,12.60
2019-03-06T23:17:00.421Z,12.50
2019-03-06T23:19:28.152Z,12.50
2019-03-06T23:21:55.857Z,12.40
2019-03-06T23:24:23.752Z,12.30
2019-03-06T23:26:51.685Z,12.30
2019-03-06T23:29:19.812Z,12.20
2019-03-06T23:31:47.515Z,12.10
2019-03-06T23:34:15.217Z,12.10
2019-03-06T23:36:42.949Z,12.00
2019-03-06T23:39:13.671Z,11.90
2019-03-06T23:41:41.404Z,11.80
2019-03-06T23:44:09.119Z,11.70
2019-03-06T23:46:36.838Z,11.70
2019-03-06T23:49:04.600Z,11.60
2019-03-06T23:51:36.236Z,11.50
2019-03-06T23:54:03.944Z,11.40
2019-03-06T23:56:31.672Z,11.30
2019-03-06T23:58:59.431Z,11.30
